TimePST,TemperatureF,Dew PointF,Humidity,Sea Level PressureIn,VisibilityMPH,Wind Direction,Wind SpeedMPH,Gust SpeedMPH,PrecipitationIn,Events,Conditions,WindDirDegrees,DateUTC
1:53 AM,55.0,19.9,25,30.25,10.0,WSW,5.8,-,N/A,,Clear,250,2013-01-17 09:53:00
2:53 AM,55.9,16.0,21,30.24,10.0,WSW,8.1,-,N/A,,Clear,250,2013-01-17 10:53:00
4:53 AM,51.1,18.0,27,30.25,10.0,West,3.5,-,N/A,,Clear,260,2013-01-17 12:53:00
5:53 AM,53.1,17.1,24,30.25,10.0,West,6.9,-,N/A,,Clear,260,2013-01-17 13:53:00
6:53 AM,54.0,16.0,22,30.27,10.0,West,8.1,-,N/A,,Clear,260,2013-01-17 14:53:00
7:53 AM,57.0,16.0,20,30.28,10.0,WSW,6.9,-,N/A,,Clear,250,2013-01-17 15:53:00
8:53 AM,64.0,12.9,14,30.30,10.0,North,6.9,-,N/A,,Clear,350,2013-01-17 16:53:00
9:53 AM,66.0,17.1,15,30.30,10.0,East,3.5,-,N/A,,Clear,100,2013-01-17 17:53:00
10:53 AM,70.0,12.0,11,30.27,10.0,Calm,Calm,-,N/A,,Clear,0,2013-01-17 18:53:00
11:53 AM,71.1,10.9,10,30.23,10.0,Calm,Calm,-,N/A,,Clear,0,2013-01-17 19:53:00
12:53 PM,71.1,10.9,10,30.19,10.0,South,6.9,-,N/A,,Clear,180,2013-01-17 20:53:00
1:53 PM,73.0,10.0,9,30.16,10.0,Calm,Calm,-,N/A,,Clear,0,2013-01-17 21:53:00
2:53 PM,73.0,10.9,9,30.15,10.0,Calm,Calm,-,N/A,,Clear,0,2013-01-17 22:53:00
3:53 PM,73.0,12.0,10,30.16,10.0,SSW,3.5,-,N/A,,Clear,210,2013-01-17 23:53:00
4:53 PM,68.0,15.1,13,30.17,10.0,SW,4.6,-,N/A,,Clear,230,2013-01-18 00:53:00
5:53 PM,68.0,14.0,12,30.19,10.0,NW,3.5,-,N/A,,Clear,310,2013-01-18 01:53:00
6:53 PM,62.1,16.0,17,30.21,10.0,WNW,5.8,-,N/A,,Clear,300,2013-01-18 02:53:00
7:53 PM,60.1,16.0,18,30.21,10.0,WNW,3.5,-,N/A,,Clear,300,2013-01-18 03:53:00
8:53 PM,59.0,14.0,17,30.21,10.0,WSW,5.8,-,N/A,,Clear,250,2013-01-18 04:53:00
9:53 PM,57.9,15.1,19,30.20,10.0,West,5.8,-,N/A,,Clear,270,2013-01-18 05:53:00
10:53 PM,54.0,15.1,22,30.21,10.0,NNW,6.9,-,N/A,,Clear,330,2013-01-18 06:53:00
11:53 PM,55.9,15.1,20,30.21,10.0,West,5.8,-,N/A,,Clear,270,2013-01-18 07:53:00